Time;durP1;ratioP1;P1;durP2;ratioP2;P2;SDS_P1;SDS_P2;PMS_P1;PMS_P2;Temp;Humidity;BMP_temperature;BMP_pressure;BME280_temperature;BME280_humidity;BME280_pressure;Samples;Min_cycle;Max_cycle;Signal;HPM_P1;HPM_P2
2022/11/12 00:00:58;;;;;;;8.87;4.90;;;;;;;10.65;96.21;100714.14;1698963;83;21084;-66
2022/11/12 00:03:25;;;;;;;8.58;6.50;;;;;;;10.65;96.18;100719.83;1695199;83;20974;-65
2022/11/12 00:05:52;;;;;;;8.98;5.00;;;;;;;10.63;96.26;100715.09;1699274;83;20875;-65
2022/11/12 00:08:19;;;;;;;6.78;5.28;;;;;;;10.63;96.36;100717.70;1699595;83;20938;-65
2022/11/12 00:10:46;;;;;;;7.80;4.92;;;;;;;10.63;96.35;100717.70;1699511;83;21569;-65
2022/11/12 00:13:13;;;;;;;6.87;5.08;;;;;;;10.64;96.37;100716.79;1697613;83;21916;-66
2022/11/12 00:15:39;;;;;;;7.12;4.72;;;;;;;10.66;96.30;100720.22;1699576;83;20962;-65
2022/11/12 00:18:06;;;;;;;7.08;5.25;;;;;;;10.65;96.28;100713.30;1699348;83;21048;-65
2022/11/12 00:20:34;;;;;;;8.80;5.22;;;;;;;10.63;96.27;100715.09;1699110;83;21001;-65
2022/11/12 00:23:01;;;;;;;9.93;5.45;;;;;;;10.62;96.30;100700.34;1699070;83;23262;-66
2022/11/12 00:25:28;;;;;;;7.62;6.17;;;;;;;10.62;96.29;100710.78;1697851;83;21112;-66
2022/11/12 00:28:04;;;;;;;8.80;5.63;;;;;;;10.61;96.28;100712.52;1698821;83;21004;-65
2022/11/12 00:30:31;;;;;;;10.18;6.42;;;;;;;10.61;96.26;100710.36;1695795;83;21460;-65
2022/11/12 00:33:04;;;;;;;8.43;5.78;;;;;;;10.61;96.19;100711.67;1664729;84;20989;-66
2022/11/12 00:35:32;;;;;;;9.18;5.62;;;;;;;10.59;96.24;100716.11;1677363;84;20929;-66
2022/11/12 00:37:59;;;;;;;8.90;5.67;;;;;;;10.60;96.24;100726.48;1662741;84;21088;-66
2022/11/12 00:40:26;;;;;;;;;;;;;;;10.59;96.17;100722.64;1701324;83;20954;-65
2022/11/12 00:42:53;;;;;;;7.60;5.20;;;;;;;10.58;96.16;100730.05;1688333;83;20194;-65
2022/11/12 00:45:20;;;;;;;8.25;4.97;;;;;;;10.59;96.19;100722.17;1699284;83;20969;-65
2022/11/12 00:47:47;;;;;;;10.65;6.15;;;;;;;10.58;96.19;100723.52;1663407;84;26845;-65
2022/11/12 00:50:15;;;;;;;6.53;5.50;;;;;;;10.58;96.13;100727.44;1685400;84;21007;-66
2022/11/12 00:52:41;;;;;;;;;;;;;;;10.57;96.15;100733.57;1701101;83;21181;-65
2022/11/12 00:55:08;;;;;;;7.47;5.40;;;;;;;10.58;96.16;100723.52;1667634;84;20430;-66
2022/11/12 00:57:35;;;;;;;8.43;5.67;;;;;;;10.56;96.12;100733.15;1693998;83;21519;-65
2022/11/12 01:00:04;;;;;;;8.95;5.75;;;;;;;10.56;96.20;100721.39;1661803;84;21971;-66
2022/11/12 01:02:31;;;;;;;6.90;4.72;;;;;;;10.57;96.13;100718.75;1698279;83;21559;-65
2022/11/12 01:04:58;;;;;;;8.47;5.73;;;;;;;10.56;96.07;100722.28;1696960;83;21472;-65
2022/11/12 01:07:25;;;;;;;7.70;5.83;;;;;;;10.53;96.01;100725.84;1664279;85;24329;-65
2022/11/12 01:09:51;;;;;;;9.90;5.80;;;;;;;10.51;96.23;100731.55;1644275;86;20970;-65
2022/11/12 01:12:18;;;;;;;8.40;4.80;;;;;;;10.52;96.24;100737.16;1658622;85;20983;-66
2022/11/12 01:14:45;;;;;;;13.50;5.70;;;;;;;10.52;96.24;100737.16;1655094;85;21321;-66
2022/11/12 01:17:11;;;;;;;9.13;5.80;;;;;;;10.51;96.23;100735.47;1653913;85;20962;-65
2022/11/12 01:19:38;;;;;;;7.37;5.70;;;;;;;10.49;96.14;100739.88;1665837;84;21686;-65
2022/11/12 01:22:05;;;;;;;7.90;5.42;;;;;;;10.49;96.11;100746.86;1654382;85;21074;-65
2022/11/12 01:24:32;;;;;;;7.58;5.47;;;;;;;10.46;96.10;100749.11;1648817;85;21525;-65
2022/11/12 01:26:58;;;;;;;6.62;5.53;;;;;;;10.46;96.21;100741.73;1660164;85;21952;-66
2022/11/12 01:29:25;;;;;;;8.35;5.03;;;;;;;10.47;96.25;100748.65;1659367;85;21008;-65
2022/11/12 01:31:52;;;;;;;9.83;5.35;;;;;;;10.48;96.24;100743.39;1646855;85;21503;-66
2022/11/12 01:34:19;;;;;;;7.90;5.15;;;;;;;10.48;96.25;100743.39;1668060;84;21651;-65
2022/11/12 01:36:45;;;;;;;7.47;5.00;;;;;;;10.48;96.24;100748.62;1635180;86;20957;-65
2022/11/12 01:39:12;;;;;;;9.20;5.93;;;;;;;10.48;96.26;100753.84;1652658;85;21118;-65
2022/11/12 01:41:40;;;;;;;9.37;5.70;;;;;;;10.48;96.31;100748.62;1654600;85;21013;-66
2022/11/12 01:44:20;;;;;;;8.28;5.47;;;;;;;10.48;96.30;100751.23;1653978;85;21602;-66
2022/11/12 01:47:07;;;;;;;10.98;6.08;;;;;;;10.49;96.22;100754.69;1645338;85;21029;-65
2022/11/12 01:49:45;;;;;;;7.37;5.10;;;;;;;10.50;96.20;100752.05;1651750;85;21038;-66
2022/11/12 01:52:25;;;;;;;10.55;6.33;;;;;;;10.51;96.06;100745.91;1649944;85;21074;-65
2022/11/12 01:54:56;;;;;;;9.73;5.45;;;;;;;10.51;96.09;100757.66;1660626;85;20993;-66
2022/11/12 01:57:28;;;;;;;6.28;5.08;;;;;;;10.51;96.10;100761.58;1671904;85;22060;-66
2022/11/12 02:00:00;;;;;;;8.75;5.42;;;;;;;10.52;95.97;100758.05;1664546;84;20960;-65
2022/11/12 02:02:28;;;;;;;7.97;5.42;;;;;;;10.51;96.09;100751.13;1648988;85;21119;-65
2022/11/12 02:04:55;;;;;;;8.95;5.42;;;;;;;10.51;96.04;100752.44;1661639;85;21042;-66
2022/11/12 02:07:24;;;;;;;7.83;5.33;;;;;;;10.51;96.07;100747.22;1644814;85;20950;-66
2022/11/12 02:09:52;;;;;;;9.78;6.15;;;;;;;10.51;96.09;100751.13;1665039;84;21510;-66
2022/11/12 02:15:04;;;;;;;6.60;4.55;;;;;;;10.56;96.15;100760.56;1649081;84;20957;-66
2022/11/12 02:17:32;;;;;;;9.38;4.80;;;;;;;10.59;96.10;100756.59;1664860;84;21084;-66
2022/11/12 02:20:00;;;;;;;9.48;5.42;;;;;;;10.59;96.11;100749.60;1664744;84;21060;-66
2022/11/12 02:22:27;;;;;;;6.70;4.70;;;;;;;10.60;96.08;100755.67;1624362;87;20933;-66
2022/11/12 02:24:54;;;;;;;10.40;5.30;;;;;;;10.60;96.14;100754.36;1625504;87;20916;-65
2022/11/12 02:27:22;;;;;;;8.60;4.80;;;;;;;10.61;96.11;100753.45;1664553;84;21035;-65
2022/11/12 02:29:48;;;;;;;7.67;4.60;;;;;;;10.61;96.13;100754.30;1664808;84;21292;-66
2022/11/12 02:32:15;;;;;;;9.45;5.12;;;;;;;10.63;96.14;100751.66;1665854;84;20980;-66
2022/11/12 02:34:42;;;;;;;11.17;5.13;;;;;;;10.62;96.12;100752.57;1646193;86;21033;-65
2022/11/12 02:37:08;;;;;;;8.80;5.57;;;;;;;10.63;96.16;100756.88;1666433;84;20924;-65
2022/11/12 02:39:35;;;;;;;8.53;4.95;;;;;;;10.59;96.10;100760.50;1647234;85;20910;-66
2022/11/12 02:42:02;;;;;;;8.83;4.30;;;;;;;10.64;96.05;100754.66;1660162;84;21749;-66
2022/11/12 02:44:30;;;;;;;7.17;4.35;;;;;;;10.66;96.04;100763.31;1643819;85;20978;-65
2022/11/12 02:46:56;;;;;;;9.45;4.90;;;;;;;10.65;95.92;100749.86;1659633;84;21008;-65
2022/11/12 02:49:23;;;;;;;6.83;4.10;;;;;;;10.65;95.98;100757.70;1664802;84;21046;-65
2022/11/12 02:51:50;;;;;;;11.15;5.10;;;;;;;10.67;95.93;100761.09;1665766;84;20987;-65
2022/11/12 02:54:16;;;;;;;9.88;4.67;;;;;;;10.66;95.90;100755.48;1662719;85;21841;-65
2022/11/12 02:56:43;;;;;;;6.42;4.12;;;;;;;10.66;95.87;100765.92;1647925;85;21051;-65
2022/11/12 02:59:10;;;;;;;10.78;4.55;;;;;;;10.65;95.87;100760.31;1664916;84;21454;-65
2022/11/12 03:01:36;;;;;;;8.48;4.55;;;;;;;10.66;95.90;100762.86;1665331;84;20983;-66
2022/11/12 03:04:03;;;;;;;8.57;4.70;;;;;;;10.66;95.80;100762.86;1646336;85;20986;-64
2022/11/12 03:06:30;;;;;;;9.88;5.22;;;;;;;10.69;95.82;100773.20;1659468;85;21255;-65
2022/11/12 03:08:57;;;;;;;10.93;4.62;;;;;;;10.68;95.79;100766.73;1649944;85;20973;-65
2022/11/12 03:11:24;;;;;;;9.50;4.62;;;;;;;10.70;95.81;100781.92;1650304;85;21565;-65
2022/11/12 03:13:51;;;;;;;6.70;3.93;;;;;;;10.62;96.01;100765.63;1658924;86;20946;-65
2022/11/12 03:16:17;;;;;;;9.17;4.83;;;;;;;10.74;95.65;100776.98;1645404;85;21184;-65
2022/11/12 03:18:44;;;;;;;8.23;3.95;;;;;;;10.69;95.69;100776.27;1652466;85;21230;-65
2022/11/12 03:21:11;;;;;;;6.43;3.97;;;;;;;10.68;95.68;100784.56;1658868;86;20939;-64
2022/11/12 03:23:39;;;;;;;8.68;4.15;;;;;;;10.69;95.67;100778.43;1665979;84;20925;-65
2022/11/12 03:26:06;;;;;;;8.45;4.58;;;;;;;10.69;95.72;100778.88;1656167;85;21017;-65
2022/11/12 03:28:33;;;;;;;7.70;4.47;;;;;;;10.72;95.64;100784.02;1656164;85;20950;-65
2022/11/12 03:31:00;;;;;;;5.78;3.80;;;;;;;10.72;95.59;100786.16;1673212;84;21032;-65
2022/11/12 03:33:27;;;;;;;8.83;3.90;;;;;;;10.63;95.85;100781.23;1655131;84;20942;-65
2022/11/12 03:35:54;;;;;;;6.60;3.72;;;;;;;10.71;95.71;100778.40;1656399;86;20982;-65
2022/11/12 03:38:21;;;;;;;9.87;4.23;;;;;;;10.74;95.61;100778.30;1666112;84;21028;-65
2022/11/12 03:40:48;;;;;;;10.95;4.53;;;;;;;10.77;95.54;100779.50;1665927;84;21023;-65
2022/11/12 03:43:15;;;;;;;7.00;3.92;;;;;;;10.78;95.52;100779.90;1651015;86;21764;-65
2022/11/12 03:45:41;;;;;;;8.28;4.50;;;;;;;10.79;95.41;100781.62;1668687;84;21072;-65
2022/11/12 03:48:08;;;;;;;5.40;3.60;;;;;;;10.78;95.45;100785.13;1652480;85;20966;-65
2022/11/12 03:50:35;;;;;;;6.60;3.60;;;;;;;10.80;95.48;100778.09;1673063;84;20946;-65
2022/11/12 03:53:02;;;;;;;7.45;3.85;;;;;;;10.81;95.06;100776.34;1631321;87;20980;-65
2022/11/12 03:55:29;;;;;;;5.77;3.53;;;;;;;10.81;95.06;100776.34;1655336;85;21034;-65
2022/11/12 03:57:56;;;;;;;;;;;;;;;10.82;95.26;100777.61;1666588;84;20991;-65
2022/11/12 04:00:24;;;;;;;;;;;;;;;10.73;95.71;100775.30;1668809;84;20815;-65
2022/11/12 04:02:51;;;;;;;9.60;4.37;;;;;;;10.72;95.77;100777.02;1662675;85;20443;-65
2022/11/12 04:08:37;;;;;;;8.53;4.00;;;;;;;10.72;95.71;100767.03;1657863;85;21507;-65
2022/11/12 04:11:13;;;;;;;7.20;3.52;;;;;;;10.81;95.31;100770.69;1658651;85;21579;-65
2022/11/12 04:13:44;;;;;;;8.45;4.30;;;;;;;10.80;95.35;100767.65;1674832;85;20959;-65
2022/11/12 04:21:54;;;;;;;13.27;4.37;;;;;;;10.87;95.07;100744.81;1657826;85;21078;-65
2022/11/12 04:27:28;;;;;;;7.10;3.52;;;;;;;10.91;95.03;100757.71;1661096;84;20946;-65
2022/11/12 04:32:53;;;;;;;6.97;3.55;;;;;;;10.92;94.84;100754.22;1659343;85;20954;-64
2022/11/12 04:35:22;;;;;;;8.35;3.20;;;;;;;10.92;94.86;100755.52;1674285;84;21051;-65
2022/11/12 04:37:49;;;;;;;5.80;3.33;;;;;;;10.91;94.84;100749.88;1656121;84;20970;-65
2022/11/12 04:45:56;;;;;;;6.30;3.50;;;;;;;10.93;94.87;100763.75;1657796;85;21032;-64
2022/11/12 04:48:23;;;;;;;;;;;;;;;10.81;95.27;100753.70;1658046;85;22294;-65
2022/11/12 04:50:53;;;;;;;;;;;;;;;10.91;94.87;100757.71;1675824;85;20755;-65
2022/11/12 04:53:20;;;;;;;10.05;3.70;;;;;;;10.93;94.80;100752.00;1629267;86;20134;-65
2022/11/12 04:55:55;;;;;;;7.53;3.15;;;;;;;10.93;94.78;100755.91;1675655;84;20958;-66
2022/11/12 04:58:22;;;;;;;10.93;4.72;;;;;;;10.95;94.91;100747.58;1658064;85;20943;-65
2022/11/12 05:00:50;;;;;;;6.92;3.45;;;;;;;10.98;94.80;100753.16;1658336;85;21007;-65
2022/11/12 05:03:17;;;;;;;6.25;3.40;;;;;;;10.98;94.69;100742.25;1660633;85;20923;-65
2022/11/12 05:05:44;;;;;;;6.95;3.62;;;;;;;11.01;94.64;100742.61;1661042;85;20943;-65
2022/11/12 05:08:10;;;;;;;9.90;3.95;;;;;;;11.01;94.67;100739.11;1656193;83;21493;-65
2022/11/12 05:10:37;;;;;;;9.63;4.37;;;;;;;11.03;94.64;100742.54;1654778;86;21509;-65
2022/11/12 05:13:03;;;;;;;9.63;3.60;;;;;;;11.03;94.60;100750.38;1649348;85;21007;-65
2022/11/12 05:15:30;;;;;;;9.30;3.87;;;;;;;11.03;94.60;100750.38;1645648;85;20951;-65
2022/11/12 05:17:57;;;;;;;8.83;3.90;;;;;;;11.04;94.57;100744.27;1652954;85;21091;-65
2022/11/12 05:20:24;;;;;;;9.20;3.93;;;;;;;11.05;94.58;100749.89;1653078;85;21623;-66
2022/11/12 05:22:50;;;;;;;9.83;3.83;;;;;;;11.04;94.55;100746.88;1649805;85;21062;-65
2022/11/12 05:25:17;;;;;;;10.43;3.52;;;;;;;11.06;94.55;100748.55;1651043;85;21490;-65
2022/11/12 05:27:44;;;;;;;8.80;4.30;;;;;;;11.08;94.53;100753.70;1652515;86;20978;-65
2022/11/12 05:30:11;;;;;;;8.27;3.87;;;;;;;11.06;94.52;100758.11;1647692;85;20895;-65
2022/11/12 05:32:38;;;;;;;8.45;3.58;;;;;;;11.04;94.54;100757.34;1653782;85;20959;-65
2022/11/12 05:35:05;;;;;;;7.93;4.10;;;;;;;11.04;94.51;100757.34;1650195;85;20951;-65
2022/11/12 05:37:32;;;;;;;5.30;2.95;;;;;;;11.04;94.60;100754.72;1647772;85;21239;-65
2022/11/12 05:39:59;;;;;;;6.65;3.35;;;;;;;11.06;94.58;100759.42;1651446;85;21902;-65
2022/11/12 05:42:25;;;;;;;5.60;3.30;;;;;;;11.06;94.55;100759.00;1648939;85;20908;-65
2022/11/12 05:44:53;;;;;;;5.78;2.90;;;;;;;11.07;94.62;100765.08;1650394;85;20955;-65
2022/11/12 05:47:19;;;;;;;8.43;3.33;;;;;;;11.08;94.60;100764.16;1650494;85;20950;-65
2022/11/12 05:49:46;;;;;;;4.33;2.40;;;;;;;11.11;94.62;100769.28;1646915;86;21537;-65
2022/11/12 05:52:13;;;;;;;4.77;2.30;;;;;;;11.14;94.60;100769.17;1645510;85;20948;-65
2022/11/12 05:54:39;;;;;;;4.13;1.97;;;;;;;11.15;94.49;100763.06;1649349;85;21014;-65
2022/11/12 05:57:06;;;;;;;5.40;2.20;;;;;;;11.17;94.45;100766.46;1645852;85;20973;-65
2022/11/12 05:59:33;;;;;;;7.33;2.70;;;;;;;11.16;94.65;100772.61;1650010;86;20996;-66
2022/11/12 06:02:00;;;;;;;5.75;2.33;;;;;;;11.18;94.51;100768.19;1649104;87;21244;-65
2022/11/12 06:04:26;;;;;;;6.03;2.15;;;;;;;11.19;94.48;100769.89;1642658;85;20889;-65
2022/11/12 06:06:53;;;;;;;5.40;1.85;;;;;;;11.22;94.52;100768.47;1636217;85;21024;-65
2022/11/12 06:09:20;;;;;;;7.12;2.37;;;;;;;11.24;94.49;100781.05;1700210;82;21499;-66
2022/11/12 06:11:46;;;;;;;5.03;1.80;;;;;;;11.25;94.44;100774.91;1697106;83;20887;-66
2022/11/12 06:14:13;;;;;;;2.40;1.60;;;;;;;11.28;94.43;100774.80;1687215;83;21595;-66
2022/11/12 06:16:40;;;;;;;3.50;2.30;;;;;;;11.30;94.37;100780.84;1698044;83;21187;-65
2022/11/12 06:19:07;;;;;;;5.90;2.17;;;;;;;11.31;94.36;100787.77;1665590;84;21135;-65
2022/11/12 06:21:34;;;;;;;6.92;3.35;;;;;;;11.34;94.35;100789.00;1702215;83;20933;-65
2022/11/12 06:24:00;;;;;;;4.60;2.05;;;;;;;11.35;94.37;100784.62;1669705;84;20999;-65
2022/11/12 06:26:29;;;;;;;5.78;2.08;;;;;;;11.38;94.30;100784.05;1684341;84;21130;-66
2022/11/12 06:28:56;;;;;;;5.78;2.00;;;;;;;11.40;94.26;100787.48;1688287;84;20933;-65
2022/11/12 06:31:23;;;;;;;3.67;2.00;;;;;;;11.41;94.24;100794.41;1703107;83;21157;-65
2022/11/12 06:33:50;;;;;;;5.00;1.85;;;;;;;11.42;94.18;100796.11;1701878;83;20930;-65
2022/11/12 06:36:19;;;;;;;4.10;1.95;;;;;;;11.47;94.18;100805.58;1705499;83;21400;-66
2022/11/12 06:38:46;;;;;;;3.98;1.92;;;;;;;11.49;94.12;100803.77;1673675;84;21112;-65
2022/11/12 06:41:13;;;;;;;3.37;1.60;;;;;;;11.49;93.94;100805.08;1671903;84;21069;-65
2022/11/12 06:43:41;;;;;;;5.30;1.92;;;;;;;11.51;94.04;100810.66;1670240;84;28191;-65
2022/11/12 06:46:14;;;;;;;4.33;1.90;;;;;;;11.52;93.92;100800.59;1675628;84;20939;-66
2022/11/12 06:48:41;;;;;;;3.30;1.60;;;;;;;11.56;93.97;100815.26;1684554;83;20969;-66
2022/11/12 06:51:18;;;;;;;4.80;2.30;;;;;;;11.53;93.99;100804.05;1672350;84;22067;-65
2022/11/12 06:53:45;;;;;;;5.17;2.12;;;;;;;11.63;93.80;100809.38;1704065;83;21040;-66
2022/11/12 06:56:13;;;;;;;4.40;1.87;;;;;;;11.65;93.86;100811.50;1700024;83;20961;-65
2022/11/12 06:58:40;;;;;;;3.98;1.80;;;;;;;11.68;93.75;100804.86;1672330;84;21466;-66
2022/11/12 07:01:13;;;;;;;4.10;1.90;;;;;;;11.68;93.75;100804.86;1677310;84;20938;-66
2022/11/12 07:03:41;;;;;;;5.17;2.00;;;;;;;11.69;93.98;100809.17;1681807;84;21051;-66
2022/11/12 07:06:14;;;;;;;5.95;2.30;;;;;;;11.74;93.91;100812.48;1707451;83;20930;-65
2022/11/12 07:08:41;;;;;;;5.03;1.80;;;;;;;11.74;93.91;100812.48;1661403;83;21012;-66
2022/11/12 07:11:09;;;;;;;7.33;2.25;;;;;;;11.77;93.75;100816.77;1652339;85;27444;-66
2022/11/12 07:13:36;;;;;;;3.80;1.27;;;;;;;11.80;93.81;100826.66;1665095;85;21509;-66
2022/11/12 07:16:06;;;;;;;4.35;2.12;;;;;;;11.81;93.67;100829.66;1663182;85;21060;-66
2022/11/12 07:18:34;;;;;;;4.45;1.90;;;;;;;11.78;93.90;100827.16;1671118;85;21016;-65
2022/11/12 07:21:07;;;;;;;6.05;1.95;;;;;;;11.85;93.67;100837.86;1665049;85;20904;-64
2022/11/12 07:23:36;;;;;;;5.42;2.10;;;;;;;11.89;93.67;100844.29;1670234;85;20923;-66
2022/11/12 07:26:16;;;;;;;5.55;2.47;;;;;;;11.77;93.25;100833.30;1664025;85;20975;-66
2022/11/12 07:28:44;;;;;;;3.80;1.77;;;;;;;11.88;93.45;100834.74;1661763;85;21912;-66
2022/11/12 07:31:14;;;;;;;7.92;2.25;;;;;;;11.89;93.23;100852.14;1668921;85;20979;-66
2022/11/12 07:33:42;;;;;;;4.60;1.65;;;;;;;11.89;93.23;100852.14;1668860;85;20860;-66
2022/11/12 07:36:13;;;;;;;5.20;2.10;;;;;;;11.80;93.24;100833.20;1664044;85;20951;-66
2022/11/12 07:38:42;;;;;;;6.90;2.50;;;;;;;11.92;93.12;100877.74;1671084;85;20943;-66
2022/11/12 07:41:18;;;;;;;2.83;1.70;;;;;;;11.92;93.23;100852.03;1667353;85;21052;-66
2022/11/12 07:43:48;;;;;;;2.20;1.70;;;;;;;11.92;93.14;100865.97;1664750;85;21072;-66
2022/11/12 07:46:22;;;;;;;4.40;1.98;;;;;;;11.94;93.03;100869.39;1669616;85;20896;-66
2022/11/12 07:48:49;;;;;;;4.22;1.90;;;;;;;11.88;93.34;100867.45;1662842;85;21515;-66
2022/11/12 07:51:22;;;;;;;5.83;2.62;;;;;;;11.88;93.34;100867.45;1660794;85;21005;-66
2022/11/12 07:53:52;;;;;;;6.47;2.05;;;;;;;11.94;93.34;100863.31;1642083;85;21903;-66
2022/11/12 07:56:21;;;;;;;5.15;2.10;;;;;;;11.82;93.90;100877.19;1667922;85;21409;-65
2022/11/12 07:58:49;;;;;;;4.87;2.17;;;;;;;11.89;93.77;100878.31;1697207;83;20968;-66
2022/11/12 08:01:38;;;;;;;5.83;2.22;;;;;;;11.84;93.67;100867.50;1672745;84;20924;-65
2022/11/12 08:04:08;;;;;;;3.52;2.00;;;;;;;12.03;93.11;100874.76;1674407;85;21044;-65
2022/11/12 08:06:36;;;;;;;5.37;2.45;;;;;;;12.05;92.87;100879.03;1658094;85;21715;-65
2022/11/12 08:09:06;;;;;;;3.33;2.30;;;;;;;12.05;92.82;100874.27;1690517;83;20892;-66
2022/11/12 08:11:37;;;;;;;5.12;2.25;;;;;;;12.02;92.80;100896.62;1686361;83;20945;-66
2022/11/12 08:14:03;;;;;;;5.25;2.15;;;;;;;11.97;92.96;100894.15;1697363;83;21009;-70
2022/11/12 08:16:32;;;;;;;7.78;2.17;;;;;;;12.00;92.84;100895.81;1677721;84;21534;-70
2022/11/12 08:19:00;;;;;;;5.37;2.45;;;;;;;11.97;92.93;100902.47;1692309;83;21213;-70
2022/11/12 08:21:27;;;;;;;6.80;2.52;;;;;;;12.00;93.32;100906.28;1689431;83;21496;-70
2022/11/12 08:23:54;;;;;;;5.17;2.12;;;;;;;12.00;93.32;100906.28;1681426;83;20988;-70
2022/11/12 08:26:21;;;;;;;4.35;2.12;;;;;;;12.04;93.19;100910.48;1677456;84;20913;-69
2022/11/12 08:28:48;;;;;;;8.88;2.60;;;;;;;12.08;93.12;100910.80;1676760;84;21487;-70
2022/11/12 08:31:19;;;;;;;5.50;1.98;;;;;;;12.07;92.94;100905.14;1697559;83;21121;-69
2022/11/12 08:33:46;;;;;;;4.67;2.70;;;;;;;12.08;92.55;100916.04;1695371;83;20977;-69
2022/11/12 08:36:15;;;;;;;6.72;2.67;;;;;;;12.06;92.83;100909.98;1681291;83;20942;-69
2022/11/12 08:38:43;;;;;;;6.22;3.10;;;;;;;12.09;93.14;100912.50;1683137;83;20943;-69
2022/11/12 08:41:11;;;;;;;;;;;;;;;12.10;93.04;100903.76;1677922;84;20918;-70
2022/11/12 08:43:40;;;;;;;7.08;3.77;;;;;;;12.11;93.10;100915.93;1675756;84;21238;-71
2022/11/12 08:46:06;;;;;;;7.90;3.45;;;;;;;12.17;93.19;100915.71;1678190;84;21907;-71
2022/11/12 08:48:35;;;;;;;8.83;3.30;;;;;;;11.99;92.87;100867.48;1695833;83;21045;-71
2022/11/12 08:51:04;;;;;;;6.47;2.85;;;;;;;12.16;93.10;100921.87;1680334;84;21492;-71
2022/11/12 08:53:31;;;;;;;6.67;2.87;;;;;;;12.20;93.10;100923.45;1692609;83;20949;-71
2022/11/12 08:55:58;;;;;;;4.92;2.65;;;;;;;12.24;93.24;100914.60;1677355;83;21116;-71
2022/11/12 08:58:25;;;;;;;6.75;2.65;;;;;;;12.27;92.96;100911.02;1693647;83;24108;-71
2022/11/12 09:00:53;;;;;;;7.28;2.90;;;;;;;12.30;92.72;100911.76;1673777;84;21479;-70
2022/11/12 09:03:22;;;;;;;;;;;;;;;12.31;92.93;100918.70;1694686;83;20948;-70
2022/11/12 09:05:50;;;;;;;6.08;3.33;;;;;;;12.33;92.84;100929.59;1686551;83;20691;-70
2022/11/12 09:08:20;;;;;;;7.65;3.50;;;;;;;12.25;92.63;100928.55;1676619;84;21113;-71
2022/11/12 09:10:48;;;;;;;5.97;2.95;;;;;;;12.27;93.02;100926.73;1686902;84;20961;-71
2022/11/12 09:13:16;;;;;;;6.25;2.85;;;;;;;12.29;93.11;100935.37;1682735;84;21571;-71
2022/11/12 09:15:42;;;;;;;7.35;2.85;;;;;;;12.16;92.98;100911.39;1679894;84;21472;-70
2022/11/12 09:18:17;;;;;;;9.05;2.95;;;;;;;12.13;93.25;100906.27;1690897;83;20997;-71
2022/11/12 09:20:44;;;;;;;7.42;3.22;;;;;;;12.13;93.25;100906.27;1680914;83;21581;-71
2022/11/12 09:23:14;;;;;;;6.47;3.12;;;;;;;12.30;92.96;100934.02;1684212;84;20983;-71
2022/11/12 09:25:42;;;;;;;8.58;2.87;;;;;;;12.30;92.73;100934.02;1664856;84;21111;-70
2022/11/12 09:28:17;;;;;;;9.55;3.30;;;;;;;12.22;92.89;100920.80;1658908;84;20968;-71
2022/11/12 09:30:50;;;;;;;9.08;3.50;;;;;;;12.24;93.16;100922.45;1662072;84;20928;-71
2022/11/12 09:33:26;;;;;;;7.50;3.00;;;;;;;12.26;93.16;100923.23;1677827;84;21027;-71
2022/11/12 09:35:54;;;;;;;6.63;2.90;;;;;;;12.26;92.94;100931.09;1692040;83;20936;-72
2022/11/12 09:38:21;;;;;;;7.20;4.15;;;;;;;12.24;93.00;100926.84;1682408;84;21102;-72
2022/11/12 09:40:59;;;;;;;7.60;3.27;;;;;;;12.25;93.07;100933.78;1663867;84;26471;-78
2022/11/12 09:43:43;;;;;;;11.28;4.17;;;;;;;12.28;93.03;100924.05;1679917;83;21661;-77
2022/11/12 09:46:21;;;;;;;13.50;4.33;;;;;;;12.28;93.04;100926.66;1687769;84;21055;-77
2022/11/12 09:48:52;;;;;;;10.85;4.22;;;;;;;12.26;92.94;100920.62;1687380;84;20982;-77
2022/11/12 09:51:32;;;;;;;8.23;3.62;;;;;;;12.29;92.99;100920.53;1682039;84;21493;-77
2022/11/12 09:54:03;;;;;;;10.58;3.62;;;;;;;12.28;92.85;100926.66;1684047;84;21507;-76
2022/11/12 09:56:32;;;;;;;9.30;3.95;;;;;;;12.28;92.99;100933.67;1665732;84;20970;-74
2022/11/12 09:58:59;;;;;;;10.55;3.95;;;;;;;12.29;92.74;100938.87;1686691;83;21057;-76
2022/11/12 10:01:40;;;;;;;4.40;3.00;;;;;;;12.27;92.88;100930.20;1661830;84;20994;-76
2022/11/12 10:04:45;;;;;;;10.13;4.92;;;;;;;12.25;92.82;100934.63;1665276;84;20966;-76
2022/11/12 10:07:29;;;;;;;6.90;3.77;;;;;;;12.22;92.97;100933.43;1693120;83;21023;-77
2022/11/12 10:10:09;;;;;;;10.55;4.22;;;;;;;12.17;92.97;100913.09;1685653;84;21505;-74
2022/11/12 10:13:02;;;;;;;12.30;4.42;;;;;;;12.29;92.99;100937.98;1668882;84;21899;-73
2022/11/12 10:19:13;;;;;;;10.60;4.35;;;;;;;12.33;92.97;100933.52;1667089;83;21903;-74
2022/11/12 10:22:06;;;;;;;9.03;3.47;;;;;;;12.31;93.15;100939.64;1695770;83;21579;-74
2022/11/12 10:24:36;;;;;;;12.85;3.80;;;;;;;12.33;93.11;100946.62;1703739;83;21456;-75
2022/11/12 10:27:20;;;;;;;6.70;3.42;;;;;;;12.33;93.07;100940.06;1691689;83;21036;-75
2022/11/12 10:30:05;;;;;;;8.43;3.72;;;;;;;12.34;93.19;100948.31;1663532;84;20979;-70
2022/11/12 10:33:23;;;;;;;7.70;3.87;;;;;;;12.38;93.15;100942.92;1708425;82;20942;-70
2022/11/12 10:35:30;;;;;;;10.00;3.65;;;;;;;12.39;93.26;100934.15;1663989;83;20948;-70
2022/11/12 10:38:01;;;;;;;9.90;4.23;;;;;;;12.42;93.14;100938.42;1706226;83;20906;-69
2022/11/12 10:40:35;;;;;;;11.25;4.47;;;;;;;12.39;93.18;100939.38;1684004;83;21433;-70
2022/11/12 10:43:22;;;;;;;7.33;3.50;;;;;;;12.38;93.19;100944.66;1673767;84;21474;-70
2022/11/12 10:45:50;;;;;;;9.25;3.87;;;;;;;12.33;93.25;100955.32;1699978;83;21014;-70
2022/11/12 10:48:32;;;;;;;11.28;3.75;;;;;;;12.30;93.31;100943.19;1673937;84;21653;-68
2022/11/12 10:50:59;;;;;;;6.85;3.40;;;;;;;12.26;93.37;100954.66;1684499;84;20947;-68
2022/11/12 10:53:32;;;;;;;;;;;;;;;12.26;93.33;100959.89;1702936;83;21037;-68
2022/11/12 10:56:07;;;;;;;7.47;3.58;;;;;;;12.28;93.47;100962.48;1701954;83;20951;-67
2022/11/12 10:58:33;;;;;;;8.50;3.20;;;;;;;12.27;93.30;100966.86;1666891;84;20962;-68
2022/11/12 11:01:08;;;;;;;8.60;3.80;;;;;;;12.24;93.46;100958.27;1688656;83;21040;-68
2022/11/12 11:03:55;;;;;;;7.22;3.55;;;;;;;12.15;93.66;100954.17;1674299;84;20958;-68
2022/11/12 11:06:25;;;;;;;9.48;3.95;;;;;;;12.20;93.50;100952.26;1695756;83;21063;-68
2022/11/12 11:08:56;;;;;;;7.95;3.80;;;;;;;12.20;93.53;100953.56;1674649;84;21068;-68
2022/11/12 11:11:29;;;;;;;10.82;4.58;;;;;;;12.10;94.02;100956.12;1673865;84;20980;-68
2022/11/12 11:14:24;;;;;;;8.00;4.35;;;;;;;12.05;94.09;100955.41;1678065;84;21532;-68
2022/11/12 11:16:57;;;;;;;9.30;4.67;;;;;;;12.17;93.73;100957.60;1688111;83;21573;-69
2022/11/12 11:19:29;;;;;;;12.82;4.53;;;;;;;12.19;93.51;100957.56;1682486;84;21846;-69
2022/11/12 11:22:19;;;;;;;14.45;4.67;;;;;;;12.18;93.55;100956.69;1681443;84;20953;-68
2022/11/12 11:24:57;;;;;;;9.73;4.58;;;;;;;12.18;93.66;100957.14;1652946;84;21676;-68
2022/11/12 11:27:51;;;;;;;10.32;4.72;;;;;;;12.18;93.64;100956.69;1686879;84;20980;-68
2022/11/12 11:30:20;;;;;;;8.43;3.90;;;;;;;12.18;93.73;100961.92;1681842;84;20993;-68
2022/11/12 11:33:08;;;;;;;9.83;4.58;;;;;;;12.14;94.38;100965.56;1702752;83;20985;-68
2022/11/12 11:36:16;;;;;;;13.68;4.10;;;;;;;12.22;94.01;100958.30;1698815;83;20934;-68
2022/11/12 11:39:03;;;;;;;9.78;5.10;;;;;;;12.26;93.96;100945.49;1696744;83;21504;-67
2022/11/12 11:41:56;;;;;;;11.05;4.60;;;;;;;12.27;93.99;100945.91;1683325;84;20949;-67
2022/11/12 11:44:43;;;;;;;9.30;4.50;;;;;;;12.28;94.10;100947.61;1695946;83;20958;-67
2022/11/12 11:47:30;;;;;;;;;;;;;;;12.28;94.11;100938.45;1650361;85;21054;-66
2022/11/12 11:50:12;;;;;;;11.22;4.55;;;;;;;12.34;94.16;100939.14;1669671;84;20149;-65
2022/11/12 11:52:54;;;;;;;9.00;3.95;;;;;;;12.35;94.27;100939.53;1673297;84;20932;-65
2022/11/12 11:55:54;;;;;;;8.78;3.65;;;;;;;12.40;94.39;100946.32;1671512;84;20899;-65
2022/11/12 11:58:50;;;;;;;10.30;4.40;;;;;;;12.44;94.31;100958.87;1671205;84;20945;-65
2022/11/12 12:01:49;;;;;;;9.10;4.30;;;;;;;12.44;94.31;100954.95;1675013;84;21143;-65
2022/11/12 12:04:37;;;;;;;9.48;4.28;;;;;;;12.44;94.29;100957.57;1615574;88;21043;-65
2022/11/12 12:07:28;;;;;;;7.15;4.25;;;;;;;12.47;94.49;100965.31;1615016;87;21475;-64
2022/11/12 12:10:24;;;;;;;11.80;5.53;;;;;;;12.43;94.34;100969.78;1602958;88;21548;-65